Peekskill, New York
Current Conditions -  °F | °C
As of 10:45 AM on Monday 24 Nov 2014 (Local Time) from KSWF Reporting Station
Overcast Overcast  
Wind Chill: 64°   Ceiling: 4000
Heat Index: 64°   Visibility: 10mi
Dew Point: 61°   Wind: 18mph
Humidity: 88%   Direction: 200°SSW
Pressure: 29.64"   Gusts: 24mph
Location:  41.29°N, 73.92°W
Report Text: KSWF 241545Z 20016G21KT 10SM BKN040 OVC050 18/16 A2964
Loading
Personal Weather Stations






























Interactive Weather Map New forecast layout! Learn more

10-Day Weather Forecast

Advertisements
Track Severe Weather on mobile